createdAt,value
2023-05-09T00:00:18.902Z,4.30
2023-05-09T00:01:19.498Z,5.00
2023-05-09T00:02:19.596Z,9.50
2023-05-09T00:03:18.890Z,5.20
2023-05-09T00:04:18.792Z,11.60
2023-05-09T00:05:18.900Z,6.60
2023-05-09T00:06:19.517Z,6.50
2023-05-09T00:07:19.488Z,7.30
2023-05-09T00:08:18.877Z,8.00
2023-05-09T00:09:18.931Z,6.50
2023-05-09T00:10:18.916Z,5.80
2023-05-09T00:11:18.783Z,8.00
2023-05-09T00:12:18.727Z,7.60
2023-05-09T00:13:19.786Z,9.50
2023-05-09T00:14:18.732Z,8.20
2023-05-09T00:15:18.772Z,8.20
2023-05-09T00:16:18.826Z,7.50
2023-05-09T00:17:18.782Z,7.70
2023-05-09T00:18:18.722Z,7.70
2023-05-09T00:19:18.758Z,16.50
2023-05-09T00:20:18.820Z,7.20
2023-05-09T00:21:18.663Z,7.40
2023-05-09T00:22:18.652Z,6.70
2023-05-09T00:23:18.679Z,5.90
2023-05-09T00:24:18.656Z,5.60
2023-05-09T00:25:18.660Z,8.30
2023-05-09T00:26:18.734Z,9.90
2023-05-09T00:27:18.655Z,6.40
2023-05-09T00:28:18.606Z,6.70
2023-05-09T00:29:18.611Z,5.80
2023-05-09T00:30:18.633Z,8.10
2023-05-09T00:31:18.593Z,5.30
2023-05-09T00:32:18.836Z,8.70
2023-05-09T00:33:18.639Z,5.10
2023-05-09T00:34:18.658Z,7.00
2023-05-09T00:35:18.604Z,5.80
2023-05-09T00:36:18.887Z,6.60
2023-05-09T00:37:18.541Z,5.90
2023-05-09T00:38:18.576Z,6.90
2023-05-09T00:39:18.547Z,6.60
2023-05-09T00:40:18.648Z,8.80
2023-05-09T00:41:18.524Z,5.50
2023-05-09T00:42:18.617Z,7.70
2023-05-09T00:43:18.592Z,6.70
2023-05-09T00:44:18.694Z,8.10
2023-05-09T00:45:18.732Z,5.10
2023-05-09T00:46:18.596Z,6.20
2023-05-09T00:47:18.580Z,4.90
2023-05-09T00:48:18.524Z,5.10
2023-05-09T00:49:20.475Z,7.00
2023-05-09T00:50:18.470Z,7.00
2023-05-09T00:51:18.487Z,9.10
2023-05-09T00:52:18.581Z,8.20
2023-05-09T00:53:18.469Z,4.80
2023-05-09T00:54:18.452Z,7.20
2023-05-09T00:55:18.445Z,4.90
2023-05-09T00:56:18.497Z,10.60
2023-05-09T00:57:18.504Z,8.00
2023-05-09T00:58:18.506Z,10.00
2023-05-09T00:59:18.401Z,16.00
2023-05-09T01:00:18.418Z,11.10
2023-05-09T01:01:18.484Z,8.90
2023-05-09T01:02:18.439Z,6.00
2023-05-09T01:03:18.513Z,4.50
2023-05-09T01:04:18.363Z,5.70
2023-05-09T01:05:18.366Z,7.00
2023-05-09T01:06:18.361Z,6.80
2023-05-09T01:07:18.407Z,6.40
2023-05-09T01:08:18.349Z,8.50
2023-05-09T01:09:18.341Z,9.40
2023-05-09T01:10:18.334Z,8.10
2023-05-09T01:11:18.339Z,8.30
2023-05-09T01:12:18.311Z,8.80
2023-05-09T01:13:18.346Z,8.20
2023-05-09T01:14:18.392Z,6.30
2023-05-09T01:15:18.303Z,9.10
2023-05-09T01:16:18.407Z,16.00
2023-05-09T01:17:18.322Z,8.70
2023-05-09T01:18:18.297Z,9.50
2023-05-09T01:19:18.271Z,7.60
2023-05-09T01:20:18.253Z,10.50
2023-05-09T01:21:18.251Z,8.80
2023-05-09T01:22:18.260Z,8.20
2023-05-09T01:23:18.252Z,8.80
2023-05-09T01:24:18.252Z,8.30
2023-05-09T01:25:18.552Z,7.20
2023-05-09T01:26:18.214Z,8.30
2023-05-09T01:27:18.196Z,8.60
2023-05-09T01:28:18.190Z,9.10
2023-05-09T01:29:18.204Z,7.30
2023-05-09T01:30:18.324Z,9.40
2023-05-09T01:31:18.203Z,11.40
2023-05-09T01:32:18.178Z,6.10
2023-05-09T01:33:18.185Z,7.60
2023-05-09T01:34:18.259Z,7.60
2023-05-09T01:35:18.159Z,8.90
2023-05-09T01:36:18.151Z,8.70
2023-05-09T01:37:18.134Z,8.10
2023-05-09T01:38:18.125Z,7.30
2023-05-09T01:39:18.142Z,7.60
2023-05-09T01:40:18.109Z,8.00
2023-05-09T01:41:18.115Z,9.10
2023-05-09T01:42:18.099Z,9.80
2023-05-09T01:43:18.106Z,17.70
2023-05-09T01:44:18.139Z,10.10
2023-05-09T01:45:18.166Z,8.50
2023-05-09T01:46:18.188Z,6.40
2023-05-09T01:47:18.079Z,10.40
2023-05-09T01:48:18.325Z,8.40
2023-05-09T01:49:18.115Z,8.20
2023-05-09T01:50:18.143Z,11.60
2023-05-09T01:51:18.048Z,9.90
2023-05-09T01:52:18.040Z,10.30
2023-05-09T01:53:18.039Z,9.70
2023-05-09T01:54:18.026Z,7.50
2023-05-09T01:55:18.038Z,11.40
2023-05-09T01:56:18.013Z,7.60
2023-05-09T01:57:17.996Z,11.30
2023-05-09T01:58:18.004Z,10.00
2023-05-09T01:59:17.994Z,10.60
2023-05-09T02:00:18.000Z,10.60
2023-05-09T02:01:18.046Z,10.40
2023-05-09T02:02:18.113Z,9.60
2023-05-09T02:03:18.024Z,8.50
2023-05-09T02:04:17.966Z,7.30
2023-05-09T02:05:18.034Z,7.40
2023-05-09T02:06:17.950Z,8.00
2023-05-09T02:07:17.959Z,8.10
2023-05-09T02:08:17.935Z,8.00
2023-05-09T02:09:17.976Z,11.30
2023-05-09T02:10:17.945Z,10.30
2023-05-09T02:11:17.916Z,9.10
2023-05-09T02:12:17.922Z,9.80
2023-05-09T02:13:18.061Z,10.90
2023-05-09T02:14:17.901Z,9.80
2023-05-09T02:15:17.890Z,8.20
2023-05-09T02:16:19.019Z,7.50
2023-05-09T02:17:17.912Z,7.50
2023-05-09T02:18:17.972Z,7.80
2023-05-09T02:19:17.891Z,9.10
2023-05-09T02:20:17.838Z,7.50
2023-05-09T02:21:17.908Z,7.80
2023-05-09T02:22:17.848Z,14.10
2023-05-09T02:23:17.819Z,8.10
2023-05-09T02:24:17.829Z,7.90
2023-05-09T02:25:17.818Z,11.70
2023-05-09T02:26:17.821Z,11.80
2023-05-09T02:27:17.802Z,8.10
2023-05-09T02:28:17.796Z,9.00
2023-05-09T02:29:17.784Z,11.40
2023-05-09T02:30:17.818Z,8.50
2023-05-09T02:31:17.807Z,17.50
2023-05-09T02:32:17.761Z,9.70
2023-05-09T02:33:17.751Z,7.90
2023-05-09T02:34:17.823Z,8.40
2023-05-09T02:35:17.776Z,7.50
2023-05-09T02:36:17.744Z,7.30
2023-05-09T02:37:17.732Z,12.80
2023-05-09T02:38:17.715Z,9.50
2023-05-09T02:39:17.731Z,9.30
2023-05-09T02:40:17.741Z,7.30
2023-05-09T02:41:17.702Z,8.30
2023-05-09T02:42:17.691Z,8.80
2023-05-09T02:43:17.693Z,8.70
2023-05-09T02:44:17.692Z,12.60
2023-05-09T02:45:17.687Z,8.20
2023-05-09T02:46:17.713Z,10.30
2023-05-09T02:47:17.652Z,9.30
2023-05-09T02:48:17.675Z,13.10
2023-05-09T02:49:31.628Z,9.40
2023-05-09T02:50:19.714Z,9.20
2023-05-09T02:51:17.624Z,8.20
2023-05-09T02:52:17.651Z,9.30
2023-05-09T02:53:17.629Z,8.80
2023-05-09T02:54:17.632Z,8.60
2023-05-09T02:55:17.783Z,9.10
2023-05-09T02:56:17.632Z,9.00
2023-05-09T02:57:17.576Z,8.50
2023-05-09T02:58:17.596Z,7.70
2023-05-09T02:59:17.596Z,9.30
2023-05-09T03:00:17.558Z,9.00
2023-05-09T03:01:17.604Z,9.10
2023-05-09T03:02:17.563Z,9.40
2023-05-09T03:03:17.631Z,9.50
2023-05-09T03:04:17.537Z,8.50
2023-05-09T03:05:17.539Z,10.20
2023-05-09T03:06:17.638Z,10.70
2023-05-09T03:07:17.521Z,8.20
2023-05-09T03:08:17.532Z,9.10
2023-05-09T03:09:17.494Z,9.00
2023-05-09T03:10:17.500Z,9.50
2023-05-09T03:11:17.501Z,8.90
2023-05-09T03:12:17.515Z,13.40
2023-05-09T03:13:17.509Z,19.80
2023-05-09T03:14:17.473Z,14.50
2023-05-09T03:15:17.480Z,12.30
2023-05-09T03:16:17.483Z,11.40
2023-05-09T03:17:17.467Z,11.90
2023-05-09T03:18:17.462Z,11.80
2023-05-09T03:19:17.425Z,13.60
2023-05-09T03:20:17.450Z,14.30
2023-05-09T03:21:17.416Z,11.70
2023-05-09T03:22:17.519Z,14.20
2023-05-09T03:23:17.408Z,12.40
2023-05-09T03:24:17.404Z,13.30
2023-05-09T03:25:17.673Z,15.10
2023-05-09T03:26:17.412Z,11.40
2023-05-09T03:27:17.397Z,12.70
2023-05-09T03:28:17.402Z,9.40
2023-05-09T03:29:17.374Z,11.50
2023-05-09T03:30:17.346Z,11.50
2023-05-09T03:31:17.408Z,10.70
2023-05-09T03:32:17.386Z,11.80
2023-05-09T03:33:20.562Z,11.60
2023-05-09T03:34:18.332Z,8.70
2023-05-09T03:35:17.667Z,13.30
2023-05-09T03:36:17.369Z,10.50
2023-05-09T03:37:17.314Z,11.40
2023-05-09T03:38:17.383Z,16.10
2023-05-09T03:39:17.302Z,16.70
2023-05-09T03:40:17.302Z,11.90
2023-05-09T03:41:17.302Z,13.60
2023-05-09T03:42:17.268Z,13.60
2023-05-09T03:43:17.287Z,15.80
2023-05-09T03:44:17.272Z,13.40
2023-05-09T03:45:17.286Z,13.40
2023-05-09T03:46:17.309Z,11.00
2023-05-09T03:47:17.243Z,11.40
2023-05-09T03:48:17.218Z,13.90
2023-05-09T03:49:17.239Z,11.00
2023-05-09T03:50:17.230Z,10.20
2023-05-09T03:51:17.237Z,11.30
2023-05-09T03:52:17.210Z,12.50
2023-05-09T03:53:17.188Z,10.30
2023-05-09T03:54:17.270Z,11.60
2023-05-09T03:55:17.253Z,10.60
2023-05-09T03:56:17.194Z,12.10
2023-05-09T03:57:17.160Z,11.20
2023-05-09T03:58:17.165Z,10.30
2023-05-09T03:59:17.176Z,9.60
2023-05-09T04:00:17.172Z,13.20
2023-05-09T04:01:17.144Z,13.00
2023-05-09T04:02:17.173Z,15.90
2023-05-09T04:03:17.222Z,15.90
2023-05-09T04:04:18.143Z,15.40
2023-05-09T04:05:17.427Z,14.40
2023-05-09T04:06:17.102Z,16.60
2023-05-09T04:07:17.110Z,14.60
2023-05-09T04:08:17.095Z,14.30
2023-05-09T04:09:17.126Z,14.40
2023-05-09T04:10:17.184Z,12.90
2023-05-09T04:11:17.074Z,14.50
2023-05-09T04:12:17.067Z,12.00
2023-05-09T04:13:17.215Z,12.90
2023-05-09T04:14:17.057Z,16.30
2023-05-09T04:15:17.111Z,15.10
2023-05-09T04:16:17.093Z,15.30
2023-05-09T04:17:17.042Z,12.50
2023-05-09T04:18:17.032Z,10.90
2023-05-09T04:19:17.549Z,10.10
2023-05-09T04:20:17.020Z,9.60
2023-05-09T04:21:17.000Z,10.10
2023-05-09T04:22:17.028Z,10.90
2023-05-09T04:23:17.021Z,14.50
2023-05-09T04:24:16.984Z,9.60
2023-05-09T04:25:17.219Z,14.70
2023-05-09T04:26:17.056Z,10.10
2023-05-09T04:27:16.976Z,10.40
2023-05-09T04:28:16.961Z,10.70
2023-05-09T04:29:16.944Z,9.20
2023-05-09T04:30:16.947Z,11.40
2023-05-09T04:31:17.011Z,9.40
2023-05-09T04:32:16.954Z,7.50
2023-05-09T04:33:16.926Z,10.20
2023-05-09T04:34:16.922Z,6.80
2023-05-09T04:35:18.997Z,7.80
2023-05-09T04:36:16.945Z,11.30
2023-05-09T04:37:17.003Z,8.30
2023-05-09T04:38:16.906Z,14.20
2023-05-09T04:39:16.881Z,8.00
2023-05-09T04:40:16.881Z,11.20
2023-05-09T04:41:16.885Z,8.70
2023-05-09T04:42:16.951Z,8.10
2023-05-09T04:43:16.883Z,7.50
2023-05-09T04:44:16.842Z,8.70
2023-05-09T04:45:17.080Z,10.40
2023-05-09T04:46:16.857Z,9.70
2023-05-09T04:47:16.829Z,7.20
2023-05-09T04:48:16.845Z,7.20
2023-05-09T04:49:16.821Z,6.60
2023-05-09T04:50:16.835Z,7.90
2023-05-09T04:51:17.842Z,7.00
2023-05-09T04:52:16.796Z,6.10
2023-05-09T04:53:16.786Z,8.50
2023-05-09T04:54:16.809Z,6.90
2023-05-09T04:55:16.925Z,7.40
2023-05-09T04:56:16.768Z,6.60
2023-05-09T04:57:18.540Z,6.70
2023-05-09T04:58:17.862Z,5.90
2023-05-09T04:59:16.742Z,6.10
2023-05-09T05:00:16.742Z,7.30
2023-05-09T05:01:16.838Z,8.20
2023-05-09T05:02:16.743Z,6.20
2023-05-09T05:03:16.731Z,8.70
2023-05-09T05:04:16.733Z,7.60
2023-05-09T05:05:16.733Z,10.20
2023-05-09T05:06:16.695Z,6.50
2023-05-09T05:07:16.702Z,8.40
2023-05-09T05:08:16.677Z,8.60
2023-05-09T05:09:16.686Z,12.60
2023-05-09T05:10:16.683Z,10.70
2023-05-09T05:11:16.688Z,12.60
2023-05-09T05:12:16.659Z,6.80
2023-05-09T05:13:16.664Z,5.40
2023-05-09T05:14:16.746Z,8.40
2023-05-09T05:15:16.835Z,8.90
2023-05-09T05:16:16.627Z,7.40
2023-05-09T05:17:16.604Z,8.30
2023-05-09T05:18:16.613Z,5.80
2023-05-09T05:19:16.624Z,8.30
2023-05-09T05:20:16.590Z,8.30
2023-05-09T05:21:16.635Z,4.90
2023-05-09T05:22:16.574Z,4.90
2023-05-09T05:23:16.590Z,9.60
2023-05-09T05:24:16.610Z,11.00
2023-05-09T05:25:16.753Z,5.40
2023-05-09T05:26:16.561Z,6.10
2023-05-09T05:27:16.568Z,7.10
2023-05-09T05:28:16.585Z,19.00
2023-05-09T05:29:16.536Z,8.90
2023-05-09T05:30:16.625Z,7.00
2023-05-09T05:31:16.553Z,7.80
2023-05-09T05:32:16.544Z,12.30
2023-05-09T05:33:16.545Z,10.30
2023-05-09T05:34:16.490Z,7.50
2023-05-09T05:35:17.701Z,8.00
2023-05-09T05:36:16.514Z,8.10
2023-05-09T05:37:16.510Z,12.20
2023-05-09T05:38:16.474Z,9.00
2023-05-09T05:39:16.502Z,9.20
2023-05-09T05:40:16.796Z,14.60
2023-05-09T05:41:16.452Z,9.60
2023-05-09T05:42:16.464Z,7.30
2023-05-09T05:43:16.437Z,8.80
2023-05-09T05:45:10.830Z,8.40
2023-05-09T05:45:16.637Z,7.70
2023-05-09T05:46:16.500Z,7.40
2023-05-09T05:47:16.454Z,6.50
2023-05-09T05:48:16.398Z,8.40
2023-05-09T05:49:16.413Z,5.90
2023-05-09T05:50:16.379Z,5.20
2023-05-09T05:51:16.408Z,4.50
2023-05-09T05:52:16.393Z,6.90
2023-05-09T05:53:16.364Z,4.80
2023-05-09T05:54:16.361Z,4.00
2023-05-09T05:55:16.540Z,5.20
2023-05-09T05:56:16.358Z,3.40
2023-05-09T05:57:16.333Z,3.90
2023-05-09T05:58:16.334Z,4.60
2023-05-09T05:59:16.315Z,4.30
2023-05-09T06:00:16.357Z,7.50
2023-05-09T06:01:16.334Z,4.50
2023-05-09T06:02:16.403Z,6.80
2023-05-09T06:03:16.420Z,7.60
2023-05-09T06:04:16.506Z,3.80
2023-05-09T06:05:16.472Z,9.00
2023-05-09T06:06:16.269Z,6.90
2023-05-09T06:07:16.254Z,5.00
2023-05-09T06:08:16.285Z,4.90
2023-05-09T06:09:16.257Z,6.60
2023-05-09T06:10:16.240Z,3.90
2023-05-09T06:11:16.226Z,6.80
2023-05-09T06:12:16.225Z,14.00
2023-05-09T06:13:16.265Z,7.50
2023-05-09T06:14:16.209Z,4.00
2023-05-09T06:15:16.797Z,3.10
2023-05-09T06:16:20.024Z,4.20
2023-05-09T06:17:18.004Z,7.90
2023-05-09T06:18:16.271Z,9.10
2023-05-09T06:19:16.224Z,4.80
2023-05-09T06:20:16.189Z,6.20
2023-05-09T06:21:16.159Z,13.40
2023-05-09T06:22:16.162Z,7.30
2023-05-09T06:23:16.149Z,9.70
2023-05-09T06:24:27.940Z,9.10
2023-05-09T06:25:18.199Z,19.10
2023-05-09T06:26:16.128Z,16.60
2023-05-09T06:27:16.119Z,7.10
2023-05-09T06:28:16.147Z,17.60
2023-05-09T06:29:16.123Z,13.90
2023-05-09T06:30:25.782Z,21.60
2023-05-09T06:31:18.136Z,26.70
2023-05-09T06:32:16.089Z,11.50
2023-05-09T06:33:16.105Z,16.70
2023-05-09T06:34:16.193Z,9.80
2023-05-09T06:35:16.209Z,15.20
2023-05-09T06:36:17.067Z,16.50
2023-05-09T06:37:16.070Z,14.00
2023-05-09T06:38:16.077Z,20.30
2023-05-09T06:39:16.041Z,29.90
2023-05-09T06:40:16.146Z,46.00
2023-05-09T06:41:16.022Z,68.20
2023-05-09T06:42:16.014Z,50.80
2023-05-09T06:43:16.066Z,56.70
2023-05-09T06:44:16.001Z,47.60
2023-05-09T06:45:16.426Z,46.20
2023-05-09T06:46:16.012Z,45.40
2023-05-09T06:47:16.001Z,23.60
2023-05-09T06:48:15.988Z,4.50
2023-05-09T06:49:15.984Z,8.40
2023-05-09T06:50:16.051Z,35.20
2023-05-09T06:51:15.956Z,22.80
2023-05-09T06:52:15.984Z,21.50
2023-05-09T06:53:16.013Z,17.00
2023-05-09T06:54:15.937Z,15.00
2023-05-09T06:55:16.224Z,23.00
2023-05-09T06:56:16.676Z,23.00
2023-05-09T06:57:15.938Z,21.50
2023-05-09T06:58:16.006Z,10.10
2023-05-09T06:59:15.901Z,31.30
2023-05-09T07:00:15.893Z,8.80
2023-05-09T07:01:15.950Z,15.00
2023-05-09T07:02:15.916Z,18.70
2023-05-09T07:03:15.874Z,8.90
2023-05-09T07:04:15.869Z,4.30
2023-05-09T07:05:16.263Z,6.20
2023-05-09T07:07:15.865Z,4.40
2023-05-09T07:08:15.837Z,6.90
2023-05-09T07:09:15.895Z,7.00
2023-05-09T07:10:15.830Z,6.50
2023-05-09T07:11:15.855Z,3.00
2023-05-09T07:12:15.813Z,12.20
2023-05-09T07:13:15.891Z,3.70
2023-05-09T07:14:15.803Z,27.20
2023-05-09T07:15:25.563Z,13.70
2023-05-09T07:16:17.881Z,7.60
2023-05-09T07:17:23.493Z,3.60
2023-05-09T07:18:17.774Z,9.60
2023-05-09T07:19:15.781Z,11.10
2023-05-09T07:20:15.769Z,12.10
2023-05-09T07:21:15.756Z,4.60
2023-05-09T07:22:15.853Z,9.70
2023-05-09T07:23:15.719Z,6.50
2023-05-09T07:24:15.742Z,7.20
2023-05-09T07:25:15.992Z,16.50
2023-05-09T07:26:15.704Z,9.60
2023-05-09T07:27:15.714Z,14.30
2023-05-09T07:28:15.702Z,6.20
2023-05-09T07:29:15.705Z,11.40
2023-05-09T07:30:15.910Z,8.20
2023-05-09T07:31:15.689Z,11.00
2023-05-09T07:32:15.696Z,6.40
2023-05-09T07:33:15.659Z,3.50
2023-05-09T07:34:15.696Z,6.80
2023-05-09T07:35:15.921Z,4.70
2023-05-09T07:36:15.633Z,4.40
2023-05-09T07:37:16.492Z,8.80
2023-05-09T07:38:15.731Z,7.30
2023-05-09T07:39:15.640Z,5.90
2023-05-09T07:40:15.867Z,6.70
2023-05-09T07:41:15.608Z,3.80
2023-05-09T07:42:15.600Z,3.70
2023-05-09T07:43:16.611Z,10.70
2023-05-09T07:44:15.577Z,4.00
2023-05-09T07:45:15.872Z,4.00
2023-05-09T07:46:15.587Z,7.00
2023-05-09T07:47:15.604Z,4.50
2023-05-09T07:48:15.559Z,8.40
2023-05-09T07:49:15.576Z,3.40
2023-05-09T07:50:16.525Z,11.90
2023-05-09T07:51:15.555Z,3.80
2023-05-09T07:52:15.621Z,11.50
2023-05-09T07:53:15.535Z,8.20
2023-05-09T07:54:15.608Z,3.50
2023-05-09T07:55:15.663Z,3.50
2023-05-09T07:56:15.489Z,7.20
2023-05-09T07:57:15.501Z,3.20
2023-05-09T07:58:15.495Z,6.70
2023-05-09T07:59:15.477Z,10.40
2023-05-09T08:00:15.564Z,3.70
2023-05-09T08:01:15.451Z,3.60
2023-05-09T08:02:15.495Z,4.20
2023-05-09T08:03:15.740Z,6.90
2023-05-09T08:04:15.446Z,7.50
2023-05-09T08:05:15.594Z,17.40
2023-05-09T08:06:15.439Z,7.10
2023-05-09T08:07:15.454Z,10.10
2023-05-09T08:08:15.402Z,6.70
2023-05-09T08:09:15.395Z,5.30
2023-05-09T08:10:15.479Z,7.60
2023-05-09T08:11:15.406Z,10.60
2023-05-09T08:12:15.385Z,15.60
2023-05-09T08:13:15.398Z,7.10
2023-05-09T08:14:15.710Z,3.60
2023-05-09T08:15:16.550Z,6.00
2023-05-09T08:16:15.624Z,7.00
2023-05-09T08:17:15.356Z,9.80
2023-05-09T08:18:15.376Z,16.00
2023-05-09T08:19:15.328Z,2.60
2023-05-09T08:20:15.337Z,7.10
2023-05-09T08:21:15.336Z,3.60
2023-05-09T08:22:15.297Z,10.60
2023-05-09T08:23:15.302Z,12.40
2023-05-09T08:24:15.291Z,4.20
2023-05-09T08:25:15.569Z,6.10
2023-05-09T08:26:15.372Z,4.20
2023-05-09T08:27:15.368Z,6.20
2023-05-09T08:28:15.277Z,11.80
2023-05-09T08:29:15.256Z,10.30
2023-05-09T08:30:15.264Z,3.10
2023-05-09T08:31:15.287Z,4.80
2023-05-09T08:32:15.236Z,7.10
2023-05-09T08:33:15.261Z,4.20
2023-05-09T08:34:15.230Z,5.30
2023-05-09T08:35:15.521Z,3.70
2023-05-09T08:36:15.205Z,9.70
2023-05-09T08:37:15.607Z,3.60
2023-05-09T08:38:15.182Z,9.70
2023-05-09T08:39:15.210Z,9.90
2023-05-09T08:40:15.407Z,5.90
2023-05-09T08:41:15.167Z,6.40
2023-05-09T08:42:15.157Z,4.20
2023-05-09T08:43:15.168Z,7.30
2023-05-09T08:44:15.164Z,3.90
2023-05-09T08:45:15.159Z,3.40
2023-05-09T08:46:15.172Z,7.00
2023-05-09T08:47:15.138Z,3.90
2023-05-09T08:48:15.131Z,6.00
2023-05-09T08:49:15.130Z,8.50
2023-05-09T08:50:15.371Z,5.00
2023-05-09T08:51:15.105Z,12.00
2023-05-09T08:52:15.091Z,9.70
2023-05-09T08:53:15.152Z,7.60
2023-05-09T08:54:15.096Z,4.20
2023-05-09T08:55:15.077Z,4.90
2023-05-09T08:56:15.057Z,5.00
2023-05-09T08:57:15.069Z,10.50
2023-05-09T08:58:15.153Z,5.00
2023-05-09T08:59:15.088Z,4.60
2023-05-09T09:00:17.936Z,13.60
2023-05-09T09:01:16.106Z,4.20
2023-05-09T09:02:15.035Z,4.40
2023-05-09T09:03:15.112Z,7.70
2023-05-09T09:04:15.051Z,5.10
2023-05-09T09:05:34.179Z,5.30
2023-05-09T09:06:17.022Z,11.70
2023-05-09T09:07:15.011Z,4.40
2023-05-09T09:08:14.995Z,4.30
2023-05-09T09:09:14.997Z,6.90
2023-05-09T09:10:15.212Z,8.80
2023-05-09T09:11:15.005Z,15.40
2023-05-09T09:12:14.985Z,4.70
2023-05-09T09:13:14.937Z,7.00
2023-05-09T09:14:15.035Z,10.90
2023-05-09T09:15:15.435Z,7.70
2023-05-09T09:16:14.930Z,7.50
2023-05-09T09:17:14.959Z,9.10
2023-05-09T09:18:14.930Z,11.10
2023-05-09T09:19:14.904Z,7.90
2023-05-09T09:20:15.003Z,6.00
2023-05-09T09:21:14.935Z,5.40
2023-05-09T09:22:14.901Z,7.20
2023-05-09T09:23:14.869Z,11.60
2023-05-09T09:24:14.864Z,6.20
2023-05-09T09:25:14.862Z,9.10
2023-05-09T09:26:14.871Z,14.90
2023-05-09T09:27:14.856Z,10.60
2023-05-09T09:28:14.849Z,6.70
2023-05-09T09:29:14.832Z,6.40
2023-05-09T09:30:15.021Z,8.30
2023-05-09T09:31:16.601Z,6.50
2023-05-09T09:32:14.848Z,8.30
2023-05-09T09:33:14.847Z,7.60
2023-05-09T09:34:14.790Z,8.60
2023-05-09T09:35:14.809Z,15.10
2023-05-09T09:36:14.794Z,7.30
2023-05-09T09:37:14.790Z,8.30
2023-05-09T09:38:14.773Z,7.30
2023-05-09T09:39:14.770Z,8.70
2023-05-09T09:40:14.989Z,9.20
2023-05-09T09:41:14.762Z,8.30
2023-05-09T09:42:14.746Z,9.80
2023-05-09T09:43:14.773Z,7.30
2023-05-09T09:44:14.754Z,17.50
2023-05-09T09:45:14.730Z,7.80
2023-05-09T09:46:14.850Z,8.20
2023-05-09T09:47:14.739Z,8.70
2023-05-09T09:48:14.768Z,7.80
2023-05-09T09:49:14.684Z,7.40
2023-05-09T09:50:15.029Z,8.10
2023-05-09T09:51:14.682Z,8.00
2023-05-09T09:52:14.690Z,8.20
2023-05-09T09:53:14.678Z,7.60
2023-05-09T09:54:14.681Z,9.50
2023-05-09T09:55:14.667Z,7.90
2023-05-09T09:56:14.654Z,8.30
2023-05-09T09:57:14.632Z,16.60
2023-05-09T09:58:15.669Z,9.40
2023-05-09T09:59:14.648Z,9.80
2023-05-09T10:00:14.751Z,9.70
2023-05-09T10:01:14.684Z,13.40
2023-05-09T10:02:14.718Z,8.30
2023-05-09T10:03:14.710Z,8.50
2023-05-09T10:04:14.659Z,8.10
2023-05-09T10:05:14.608Z,8.20
2023-05-09T10:06:14.612Z,9.20
2023-05-09T10:07:15.211Z,9.60
2023-05-09T10:08:15.609Z,8.00
2023-05-09T10:09:14.597Z,9.10
2023-05-09T10:10:14.749Z,14.80
2023-05-09T10:11:15.568Z,13.30
2023-05-09T10:12:14.606Z,11.60
2023-05-09T10:13:14.576Z,11.10
2023-05-09T10:14:14.545Z,11.60
2023-05-09T10:15:14.569Z,11.10
2023-05-09T10:16:14.621Z,11.80
2023-05-09T10:17:14.584Z,11.20
2023-05-09T10:18:14.683Z,11.10
2023-05-09T10:19:14.577Z,11.30
2023-05-09T10:20:14.709Z,11.30
2023-05-09T10:21:14.528Z,11.20
2023-05-09T10:22:14.509Z,12.20
2023-05-09T10:23:14.494Z,11.90
2023-05-09T10:24:14.463Z,10.40
2023-05-09T10:25:14.632Z,15.70
2023-05-09T10:26:14.495Z,12.00
2023-05-09T10:27:14.466Z,10.30
2023-05-09T10:28:14.439Z,10.60
2023-05-09T10:29:14.442Z,10.40
2023-05-09T10:30:14.468Z,10.00
2023-05-09T10:31:14.654Z,13.00
2023-05-09T10:32:14.426Z,10.70
2023-05-09T10:33:14.392Z,10.20
2023-05-09T10:34:14.854Z,10.60
2023-05-09T10:35:14.608Z,9.90
2023-05-09T10:36:14.397Z,8.90
2023-05-09T10:37:14.426Z,10.20
2023-05-09T10:38:14.385Z,11.50
2023-05-09T10:39:14.359Z,10.40
2023-05-09T10:40:14.366Z,11.60
2023-05-09T10:41:14.348Z,11.10
2023-05-09T10:42:14.339Z,12.40
2023-05-09T10:43:14.322Z,14.20
2023-05-09T10:44:14.351Z,10.00
2023-05-09T10:45:14.562Z,9.20
2023-05-09T10:46:14.377Z,9.50
2023-05-09T10:47:14.310Z,9.10
2023-05-09T10:48:14.283Z,9.40
2023-05-09T10:49:14.299Z,12.70
2023-05-09T10:50:14.391Z,12.70
2023-05-09T10:51:14.268Z,11.10
2023-05-09T10:52:14.269Z,8.60
2023-05-09T10:53:14.438Z,8.10
2023-05-09T10:54:14.239Z,9.70
2023-05-09T10:55:14.513Z,16.70
2023-05-09T10:56:14.232Z,7.10
2023-05-09T10:57:14.219Z,5.80
2023-05-09T10:58:14.224Z,7.60
2023-05-09T10:59:14.233Z,5.90
2023-05-09T11:00:14.194Z,9.70
2023-05-09T11:01:14.222Z,7.90
2023-05-09T11:02:14.202Z,7.00
2023-05-09T11:03:14.296Z,6.80
2023-05-09T11:04:14.196Z,17.70
2023-05-09T11:05:14.357Z,6.70
2023-05-09T11:06:14.249Z,11.80
2023-05-09T11:07:14.152Z,8.50
2023-05-09T11:08:14.162Z,6.60
2023-05-09T11:09:14.167Z,13.20
2023-05-09T11:10:14.135Z,7.80
2023-05-09T11:11:14.129Z,7.30
2023-05-09T11:12:14.144Z,5.60
2023-05-09T11:13:14.205Z,8.10
2023-05-09T11:14:14.107Z,8.60
2023-05-09T11:15:14.246Z,5.60
2023-05-09T11:16:14.117Z,5.90
2023-05-09T11:17:14.115Z,10.60
2023-05-09T11:18:14.099Z,4.50
2023-05-09T11:19:14.071Z,11.40
2023-05-09T11:20:14.082Z,9.00
2023-05-09T11:21:14.053Z,4.80
2023-05-09T11:22:14.182Z,4.10
2023-05-09T11:23:14.073Z,8.90
2023-05-09T11:24:14.043Z,8.40
2023-05-09T11:25:14.306Z,8.40
2023-05-09T11:26:14.031Z,4.00
2023-05-09T11:27:14.043Z,6.20
2023-05-09T11:28:14.024Z,4.80
2023-05-09T11:29:14.017Z,7.10
2023-05-09T11:30:14.018Z,3.90
2023-05-09T11:31:14.000Z,7.70
2023-05-09T11:32:14.188Z,8.70
2023-05-09T11:33:13.977Z,5.60
2023-05-09T11:34:13.971Z,3.50
2023-05-09T11:35:14.226Z,3.80
2023-05-09T11:36:13.991Z,6.40
2023-05-09T11:37:13.972Z,5.00
2023-05-09T11:38:14.023Z,16.10
2023-05-09T11:39:14.006Z,3.60
2023-05-09T11:40:13.928Z,7.00
2023-05-09T11:41:13.943Z,4.10
2023-05-09T11:42:13.922Z,13.60
2023-05-09T11:43:13.925Z,3.70
2023-05-09T11:44:13.921Z,5.60
2023-05-09T11:45:14.152Z,7.30
2023-05-09T11:46:13.973Z,3.70
2023-05-09T11:47:13.914Z,6.40
2023-05-09T11:48:13.924Z,7.60
2023-05-09T11:49:13.883Z,11.00
2023-05-09T11:50:13.870Z,5.80
2023-05-09T11:51:13.875Z,3.80
2023-05-09T11:52:13.880Z,4.70
2023-05-09T11:53:13.844Z,4.80
2023-05-09T11:54:13.916Z,6.80
2023-05-09T11:55:14.256Z,5.00
2023-05-09T11:56:13.821Z,3.90
2023-05-09T11:57:13.852Z,4.10
2023-05-09T11:58:13.868Z,3.80
2023-05-09T11:59:13.798Z,3.90
2023-05-09T12:00:13.811Z,3.70
2023-05-09T12:01:13.783Z,9.60
2023-05-09T12:02:13.806Z,4.60
2023-05-09T12:03:13.831Z,4.10
2023-05-09T12:04:13.875Z,9.80
2023-05-09T12:05:13.867Z,5.20
2023-05-09T12:06:13.761Z,3.40
2023-05-09T12:07:13.752Z,7.90
2023-05-09T12:08:13.760Z,3.10
2023-05-09T12:09:13.750Z,9.70
2023-05-09T12:10:13.825Z,4.10
2023-05-09T12:11:13.729Z,9.40
2023-05-09T12:12:13.742Z,5.50
2023-05-09T12:13:13.726Z,5.30
2023-05-09T12:14:13.742Z,3.40
2023-05-09T12:15:14.224Z,9.00
2023-05-09T12:16:13.742Z,5.50
2023-05-09T12:17:13.697Z,4.40
2023-05-09T12:18:13.736Z,3.60
2023-05-09T12:19:13.680Z,6.70
2023-05-09T12:20:13.663Z,3.10
2023-05-09T12:21:13.646Z,2.60
2023-05-09T12:22:13.816Z,4.00
2023-05-09T12:23:13.651Z,7.50
2023-05-09T12:24:13.620Z,3.40
2023-05-09T12:25:13.869Z,10.10
2023-05-09T12:26:13.729Z,3.80
2023-05-09T12:27:13.634Z,7.50
2023-05-09T12:28:13.629Z,4.20
2023-05-09T12:29:13.607Z,3.80
2023-05-09T12:30:13.657Z,3.50
2023-05-09T12:31:13.643Z,10.00
2023-05-09T12:32:13.587Z,3.00
2023-05-09T12:33:13.598Z,10.50
2023-05-09T12:34:13.593Z,4.00
2023-05-09T12:35:13.856Z,8.40
2023-05-09T12:36:13.567Z,3.10
2023-05-09T12:37:13.548Z,2.40
2023-05-09T12:38:13.547Z,3.20
2023-05-09T12:39:13.541Z,5.40
2023-05-09T12:40:13.566Z,6.80
2023-05-09T12:41:30.888Z,3.20
2023-05-09T12:42:15.610Z,8.70
2023-05-09T12:43:13.527Z,6.50
2023-05-09T12:44:13.498Z,2.80
2023-05-09T12:45:14.096Z,3.60
2023-05-09T12:46:13.536Z,2.90
2023-05-09T12:47:13.603Z,6.90
2023-05-09T12:48:13.478Z,3.40
2023-05-09T12:49:13.478Z,3.50
2023-05-09T12:50:13.593Z,5.70
2023-05-09T12:51:13.487Z,11.60
2023-05-09T12:52:13.464Z,9.10
2023-05-09T12:53:13.445Z,4.80
2023-05-09T12:54:13.453Z,3.50
2023-05-09T12:55:13.539Z,11.20
2023-05-09T12:56:13.443Z,7.10
2023-05-09T12:57:13.417Z,2.80
2023-05-09T12:58:13.498Z,6.80
2023-05-09T12:59:13.412Z,2.50
2023-05-09T13:00:13.469Z,3.30
2023-05-09T13:01:13.459Z,13.20
2023-05-09T13:02:13.443Z,5.30
2023-05-09T13:03:13.423Z,6.60
2023-05-09T13:04:13.366Z,6.10
2023-05-09T13:05:13.785Z,6.50
2023-05-09T13:06:13.367Z,3.70
2023-05-09T13:07:13.357Z,3.30
2023-05-09T13:08:13.337Z,2.80
2023-05-09T13:09:13.343Z,2.70
2023-05-09T13:10:13.380Z,8.40
2023-05-09T13:11:16.546Z,7.30